createdAt,value
2018-11-12T00:00:43.961Z,12.20
2018-11-12T00:03:12.295Z,12.20
2018-11-12T00:05:40.593Z,12.30
2018-11-12T00:08:08.949Z,12.40
2018-11-12T00:10:37.259Z,12.40
2018-11-12T00:13:05.556Z,12.50
2018-11-12T00:15:33.831Z,12.50
2018-11-12T00:18:02.121Z,12.50
2018-11-12T00:20:30.413Z,12.50
2018-11-12T00:22:58.701Z,12.50
2018-11-12T00:25:27.058Z,12.60
2018-11-12T00:27:55.347Z,12.60
2018-11-12T00:30:23.633Z,12.70
2018-11-12T00:32:51.939Z,12.80
2018-11-12T00:35:20.233Z,12.90
2018-11-12T00:37:55.095Z,12.90
2018-11-12T00:40:23.401Z,13.00
2018-11-12T00:42:51.701Z,13.00
2018-11-12T00:45:20.001Z,13.00
2018-11-12T00:47:48.313Z,13.00
2018-11-12T00:50:16.710Z,13.00
2018-11-12T00:52:45.033Z,13.00
2018-11-12T00:55:14.442Z,13.00
2018-11-12T00:57:43.025Z,13.00
2018-11-12T01:00:15.665Z,13.00
2018-11-12T01:02:45.233Z,13.00
2018-11-12T01:05:14.014Z,13.10
2018-11-12T01:07:42.331Z,13.10
2018-11-12T01:10:13.753Z,13.10
2018-11-12T01:12:42.741Z,13.10
2018-11-12T01:15:12.699Z,13.10
2018-11-12T01:17:41.257Z,13.10
2018-11-12T01:20:10.765Z,13.10
2018-11-12T01:22:39.145Z,13.10
2018-11-12T01:25:08.580Z,13.10
2018-11-12T01:27:37.049Z,13.00
2018-11-12T01:30:07.711Z,13.00
2018-11-12T01:32:36.016Z,12.90
2018-11-12T01:35:05.100Z,12.90
2018-11-12T01:37:33.405Z,12.80
2018-11-12T01:40:01.701Z,12.70
2018-11-12T01:42:29.986Z,12.60
2018-11-12T01:44:58.271Z,12.50
2018-11-12T01:47:26.609Z,12.50
2018-11-12T01:49:54.907Z,12.40
2018-11-12T01:52:23.193Z,12.30
2018-11-12T01:54:51.505Z,12.30
2018-11-12T01:57:19.795Z,12.20
2018-11-12T01:59:48.101Z,12.20
2018-11-12T02:02:16.382Z,12.20
2018-11-12T02:04:44.765Z,12.30
2018-11-12T02:07:12.994Z,12.30
2018-11-12T02:09:41.282Z,12.40
2018-11-12T02:12:09.636Z,12.50
2018-11-12T02:14:38.073Z,12.60
2018-11-12T02:17:06.266Z,12.60
2018-11-12T02:19:34.556Z,12.70
2018-11-12T02:22:02.861Z,12.70
2018-11-12T02:24:31.232Z,12.80
2018-11-12T02:26:59.523Z,12.80
2018-11-12T02:29:27.817Z,12.90
2018-11-12T02:31:56.123Z,12.90
2018-11-12T02:34:24.402Z,13.00
2018-11-12T02:36:52.674Z,13.00
2018-11-12T02:39:20.967Z,13.00
2018-11-12T02:41:49.259Z,13.00
2018-11-12T02:44:17.571Z,13.00
2018-11-12T02:46:45.889Z,13.10
2018-11-12T02:49:14.199Z,13.10
2018-11-12T02:51:42.504Z,13.10
2018-11-12T02:54:10.768Z,13.10
2018-11-12T02:56:39.081Z,13.10
2018-11-12T02:59:07.359Z,13.10
2018-11-12T03:01:35.647Z,13.10
2018-11-12T03:04:04.038Z,13.00
2018-11-12T03:06:32.307Z,13.00
2018-11-12T03:09:01.539Z,13.00
2018-11-12T03:11:29.807Z,13.00
2018-11-12T03:13:58.116Z,13.00
2018-11-12T03:16:26.431Z,13.00
2018-11-12T03:18:54.704Z,13.00
2018-11-12T03:21:22.974Z,13.00
2018-11-12T03:23:51.278Z,13.00
2018-11-12T03:26:19.553Z,12.90
2018-11-12T03:28:47.845Z,12.90
2018-11-12T03:31:16.132Z,12.90
2018-11-12T03:33:44.428Z,12.90
2018-11-12T03:36:12.699Z,12.90
2018-11-12T03:38:40.986Z,12.80
2018-11-12T03:41:09.282Z,12.90
2018-11-12T03:43:37.582Z,12.90
2018-11-12T03:46:05.985Z,12.90
2018-11-12T03:48:34.341Z,12.90
2018-11-12T03:51:02.647Z,13.00
2018-11-12T03:53:34.282Z,13.00
2018-11-12T03:56:02.590Z,13.10
2018-11-12T03:58:30.885Z,13.20
2018-11-12T04:00:59.195Z,13.30
2018-11-12T04:03:27.488Z,13.40
2018-11-12T04:05:55.778Z,13.50
2018-11-12T04:08:24.089Z,13.70
2018-11-12T04:10:52.371Z,13.80
2018-11-12T04:13:20.686Z,13.80
2018-11-12T04:15:48.978Z,13.90
2018-11-12T04:18:17.278Z,14.00
2018-11-12T04:20:45.570Z,14.00
2018-11-12T04:23:13.857Z,14.10
2018-11-12T04:25:42.150Z,14.20
2018-11-12T04:28:10.464Z,14.20
2018-11-12T04:30:38.776Z,14.30
2018-11-12T04:33:07.086Z,14.40
2018-11-12T04:35:35.361Z,14.40
2018-11-12T04:38:03.759Z,14.40
2018-11-12T04:40:32.059Z,14.40
2018-11-12T04:43:00.360Z,14.30
2018-11-12T04:45:28.672Z,14.30
2018-11-12T04:47:56.972Z,14.30
2018-11-12T04:50:28.435Z,14.20
2018-11-12T04:52:56.889Z,14.20
2018-11-12T04:55:25.683Z,14.10
2018-11-12T04:57:53.940Z,14.00
2018-11-12T05:00:23.834Z,14.00
2018-11-12T05:02:52.138Z,14.00
2018-11-12T05:05:21.855Z,14.00
2018-11-12T05:07:50.142Z,14.00
2018-11-12T05:10:19.636Z,14.00
2018-11-12T05:12:48.424Z,13.90
2018-11-12T05:15:17.954Z,13.90
2018-11-12T05:17:46.238Z,13.90
2018-11-12T05:20:21.676Z,13.90
2018-11-12T05:22:50.036Z,13.90
2018-11-12T05:25:18.324Z,13.90
2018-11-12T05:27:46.633Z,13.90
2018-11-12T05:30:18.202Z,13.80
2018-11-12T05:32:46.560Z,13.80
2018-11-12T05:35:16.173Z,13.70
2018-11-12T05:37:44.759Z,13.60
2018-11-12T05:40:16.785Z,13.60
2018-11-12T05:42:45.098Z,13.50
2018-11-12T05:45:14.322Z,13.50
2018-11-12T05:47:42.604Z,13.50
2018-11-12T05:50:17.270Z,13.50
2018-11-12T05:52:46.735Z,13.40
2018-11-12T05:55:16.776Z,13.40
2018-11-12T05:57:45.754Z,13.40
2018-11-12T06:00:15.608Z,13.40
2018-11-12T06:02:43.925Z,13.40
2018-11-12T06:05:13.374Z,13.40
2018-11-12T06:07:41.732Z,13.40
2018-11-12T06:10:13.558Z,13.40
2018-11-12T06:12:42.212Z,13.30
2018-11-12T06:15:11.218Z,13.30
2018-11-12T06:17:40.220Z,13.30
2018-11-12T06:20:16.700Z,13.30
2018-11-12T06:22:45.027Z,13.30
2018-11-12T06:25:14.688Z,13.30
2018-11-12T06:27:43.008Z,13.30
2018-11-12T06:30:14.513Z,13.30
2018-11-12T06:32:42.905Z,13.30
2018-11-12T06:35:12.093Z,13.30
2018-11-12T06:37:40.793Z,13.30
2018-11-12T06:40:11.113Z,13.30
2018-11-12T06:42:39.712Z,13.30
2018-11-12T06:45:16.119Z,13.20
2018-11-12T06:47:45.278Z,13.20
2018-11-12T06:50:14.890Z,13.20
2018-11-12T06:52:43.203Z,13.20
2018-11-12T06:55:12.568Z,13.20
2018-11-12T06:57:41.268Z,13.20
2018-11-12T07:00:16.116Z,13.20
2018-11-12T07:02:44.431Z,13.30
2018-11-12T07:05:13.688Z,13.30
2018-11-12T07:07:41.976Z,13.30
2018-11-12T07:10:12.706Z,13.20
2018-11-12T07:12:42.122Z,13.30
2018-11-12T07:15:11.937Z,13.30
2018-11-12T07:17:40.332Z,13.40
2018-11-12T07:20:10.396Z,13.30
2018-11-12T07:22:38.683Z,13.30
2018-11-12T07:25:07.883Z,13.40
2018-11-12T07:27:36.185Z,13.40
2018-11-12T07:30:05.641Z,13.40
2018-11-12T07:32:33.928Z,13.40
2018-11-12T07:35:02.264Z,13.40
2018-11-12T07:37:30.623Z,13.40
2018-11-12T07:39:58.885Z,13.50
2018-11-12T07:42:27.189Z,13.50
2018-11-12T07:44:55.460Z,13.50
2018-11-12T07:47:23.760Z,13.50
2018-11-12T07:49:52.046Z,13.50
2018-11-12T07:52:20.869Z,13.60
2018-11-12T07:54:49.173Z,13.60
2018-11-12T07:57:17.456Z,13.60
2018-11-12T07:59:45.759Z,13.60
2018-11-12T08:02:14.029Z,13.70
2018-11-12T08:04:42.310Z,13.70
2018-11-12T08:07:10.617Z,13.70
2018-11-12T08:09:39.004Z,13.70
2018-11-12T08:12:07.302Z,13.70
2018-11-12T08:14:35.611Z,13.70
2018-11-12T08:17:03.877Z,13.80
2018-11-12T08:19:32.159Z,13.80
2018-11-12T08:22:00.449Z,13.80
2018-11-12T08:24:28.773Z,13.80
2018-11-12T08:26:57.065Z,13.80
2018-11-12T08:29:25.359Z,13.90
2018-11-12T08:31:53.658Z,13.90
2018-11-12T08:34:21.957Z,13.90
2018-11-12T08:36:50.263Z,14.00
2018-11-12T08:39:18.743Z,14.00
2018-11-12T08:41:46.873Z,14.10
2018-11-12T08:44:15.178Z,14.10
2018-11-12T08:46:43.478Z,14.10
2018-11-12T08:49:11.863Z,14.10
2018-11-12T08:51:40.084Z,14.10
2018-11-12T08:54:08.370Z,14.20
2018-11-12T08:56:36.664Z,14.20
2018-11-12T08:59:05.027Z,14.20
2018-11-12T09:01:33.308Z,14.20
2018-11-12T09:04:01.691Z,14.20
2018-11-12T09:06:29.905Z,14.30
2018-11-12T09:08:58.194Z,14.40
2018-11-12T09:11:26.469Z,14.50
2018-11-12T09:13:54.767Z,14.60
2018-11-12T09:16:23.086Z,14.80
2018-11-12T09:18:51.382Z,14.90
2018-11-12T09:21:19.691Z,14.90
2018-11-12T09:23:48.017Z,15.20
2018-11-12T09:26:16.327Z,15.30
2018-11-12T09:28:44.610Z,15.50
2018-11-12T09:31:14.533Z,15.60
2018-11-12T09:33:41.351Z,15.60
2018-11-12T09:36:09.652Z,15.70
2018-11-12T09:38:37.978Z,15.80
2018-11-12T09:41:06.302Z,15.90
2018-11-12T09:43:34.599Z,15.90
2018-11-12T09:46:02.953Z,16.00
2018-11-12T09:48:31.223Z,16.00
2018-11-12T09:50:59.529Z,16.10
2018-11-12T09:53:27.861Z,16.20
2018-11-12T09:55:56.188Z,16.30
2018-11-12T09:58:24.528Z,16.30
2018-11-12T10:00:52.987Z,16.40
2018-11-12T10:03:29.164Z,16.50
2018-11-12T10:05:59.936Z,16.50
2018-11-12T10:08:30.307Z,16.60
2018-11-12T10:11:01.331Z,16.70
2018-11-12T10:13:31.788Z,16.70
2018-11-12T10:16:01.000Z,16.80
2018-11-12T10:18:26.519Z,16.80
2018-11-12T10:20:54.849Z,16.80
2018-11-12T10:23:23.195Z,16.80
2018-11-12T10:25:51.777Z,16.80
2018-11-12T10:28:21.389Z,16.90
2018-11-12T10:30:49.848Z,16.90
2018-11-12T10:33:18.169Z,16.90
2018-11-12T10:35:46.489Z,17.00
2018-11-12T10:38:14.827Z,17.00
2018-11-12T10:40:43.190Z,17.00
2018-11-12T10:43:11.466Z,16.90
2018-11-12T10:45:39.791Z,17.00
2018-11-12T10:48:09.083Z,16.90
2018-11-12T10:50:37.319Z,16.90
2018-11-12T10:53:05.891Z,16.90
2018-11-12T10:55:34.374Z,17.10
2018-11-12T10:58:02.541Z,17.20
2018-11-12T11:00:37.255Z,17.20
2018-11-12T11:03:12.539Z,17.30
2018-11-12T11:05:41.900Z,17.50
2018-11-12T11:08:10.342Z,17.60
2018-11-12T11:10:38.541Z,17.70
2018-11-12T11:13:07.469Z,17.80
2018-11-12T11:15:36.457Z,17.80
2018-11-12T11:18:05.487Z,17.80
2018-11-12T11:20:33.799Z,17.80
2018-11-12T11:23:03.457Z,17.80
2018-11-12T11:25:31.785Z,17.80
2018-11-12T11:28:00.125Z,17.80
2018-11-12T11:30:28.453Z,17.80
2018-11-12T11:32:56.755Z,17.60
2018-11-12T11:35:25.049Z,17.60
2018-11-12T11:37:53.354Z,17.50
2018-11-12T11:40:25.976Z,17.50
2018-11-12T11:42:54.210Z,17.50
2018-11-12T11:45:22.919Z,17.40
2018-11-12T11:47:52.093Z,17.40
2018-11-12T11:50:21.769Z,17.40
2018-11-12T11:52:49.994Z,17.50
2018-11-12T11:55:20.569Z,17.50
2018-11-12T11:57:49.221Z,17.60
2018-11-12T12:00:19.159Z,17.70
2018-11-12T12:02:48.630Z,17.80
2018-11-12T12:05:17.698Z,17.80
2018-11-12T12:07:45.999Z,17.80
2018-11-12T12:10:15.164Z,17.90
2018-11-12T12:12:44.249Z,18.00
2018-11-12T12:15:13.868Z,18.00
2018-11-12T12:17:42.527Z,18.00
2018-11-12T12:20:15.819Z,18.00
2018-11-12T12:22:44.149Z,18.10
2018-11-12T12:25:13.756Z,18.10
2018-11-12T12:27:42.456Z,18.10
2018-11-12T12:30:13.278Z,18.10
2018-11-12T12:32:42.258Z,18.10
2018-11-12T12:35:11.328Z,18.10
2018-11-12T12:37:39.875Z,18.10
2018-11-12T12:40:09.684Z,18.10
2018-11-12T12:42:38.370Z,18.10
2018-11-12T12:45:07.653Z,18.10
2018-11-12T12:47:36.000Z,18.10
2018-11-12T12:50:05.411Z,18.10
2018-11-12T12:52:33.710Z,18.00
2018-11-12T12:55:02.006Z,18.10
2018-11-12T12:57:30.327Z,18.10
2018-11-12T12:59:58.671Z,18.10
2018-11-12T13:02:27.107Z,18.20
2018-11-12T13:04:55.348Z,18.20
2018-11-12T13:07:23.629Z,18.20
2018-11-12T13:09:52.244Z,18.20
2018-11-12T13:12:21.054Z,18.20
2018-11-12T13:14:49.615Z,18.20
2018-11-12T13:17:17.848Z,18.20
2018-11-12T13:19:46.205Z,18.20
2018-11-12T13:22:14.470Z,18.10
2018-11-12T13:24:42.774Z,18.00
2018-11-12T13:27:11.096Z,18.00
2018-11-12T13:29:39.445Z,18.00
2018-11-12T13:32:07.730Z,18.00
2018-11-12T13:34:36.058Z,18.00
2018-11-12T13:37:04.638Z,18.10
2018-11-12T13:39:33.084Z,18.20
2018-11-12T13:42:01.256Z,18.10
2018-11-12T13:44:29.564Z,18.00
2018-11-12T13:46:59.154Z,18.00
2018-11-12T13:49:27.478Z,18.00
2018-11-12T13:51:55.777Z,18.00
2018-11-12T13:54:24.080Z,17.90
2018-11-12T13:56:52.364Z,17.90
2018-11-12T13:59:20.710Z,17.90
2018-11-12T14:01:49.000Z,17.90
2018-11-12T14:04:17.286Z,17.90
2018-11-12T14:06:45.614Z,18.00
2018-11-12T14:09:13.939Z,18.00
2018-11-12T14:11:42.208Z,18.00
2018-11-12T14:14:10.591Z,18.10
2018-11-12T14:16:38.918Z,18.00
2018-11-12T14:19:07.280Z,18.00
2018-11-12T14:21:35.691Z,18.00
2018-11-12T14:24:04.294Z,17.90
2018-11-12T14:26:32.753Z,17.90
2018-11-12T14:29:01.055Z,17.80
2018-11-12T14:31:29.580Z,17.80
2018-11-12T14:33:58.438Z,17.70
2018-11-12T14:36:27.641Z,17.70
2018-11-12T14:38:55.937Z,17.60
2018-11-12T14:41:24.237Z,17.50
2018-11-12T14:43:52.563Z,17.50
2018-11-12T14:46:21.727Z,17.40
2018-11-12T14:48:50.054Z,17.40
2018-11-12T14:51:18.429Z,17.40
2018-11-12T14:53:46.692Z,17.50
2018-11-12T14:56:15.014Z,17.40
2018-11-12T14:58:43.332Z,17.50
2018-11-12T15:01:11.622Z,17.50
2018-11-12T15:03:40.189Z,17.50
2018-11-12T15:06:08.509Z,17.40
2018-11-12T15:08:36.804Z,17.40
2018-11-12T15:11:05.544Z,17.40
2018-11-12T15:13:33.871Z,17.40
2018-11-12T15:16:02.218Z,17.40
2018-11-12T15:18:30.524Z,17.30
2018-11-12T15:20:59.568Z,17.00
2018-11-12T15:23:28.993Z,16.70
2018-11-12T15:25:57.301Z,16.40
2018-11-12T15:28:25.610Z,16.10
2018-11-12T15:30:53.984Z,15.80
2018-11-12T15:33:22.812Z,15.50
2018-11-12T15:35:51.136Z,15.30
2018-11-12T15:38:19.602Z,15.10
2018-11-12T15:40:47.908Z,15.00
2018-11-12T15:43:16.368Z,14.90
2018-11-12T15:45:46.470Z,14.80
2018-11-12T15:48:13.745Z,14.70
2018-11-12T15:50:42.124Z,14.70
2018-11-12T15:53:10.449Z,14.60
2018-11-12T15:55:38.784Z,14.60
2018-11-12T15:58:07.152Z,14.50
2018-11-12T16:00:35.453Z,14.50
2018-11-12T16:03:03.744Z,14.50
2018-11-12T16:05:32.100Z,14.40
2018-11-12T16:08:00.434Z,14.40
2018-11-12T16:10:28.740Z,14.40
2018-11-12T16:12:57.055Z,14.40
2018-11-12T16:15:25.362Z,14.40
2018-11-12T16:17:53.738Z,14.30
2018-11-12T16:20:24.718Z,14.30
2018-11-12T16:22:53.538Z,14.20
2018-11-12T16:25:22.206Z,14.30
2018-11-12T16:27:50.556Z,14.30
2018-11-12T16:30:18.845Z,14.30
2018-11-12T16:32:47.530Z,14.20
2018-11-12T16:35:18.376Z,14.30
2018-11-12T16:37:47.921Z,14.20
2018-11-12T16:40:16.319Z,14.20
2018-11-12T16:42:45.712Z,14.20
2018-11-12T16:45:14.605Z,14.10
2018-11-12T16:47:43.015Z,14.10
2018-11-12T16:50:12.396Z,14.10
2018-11-12T16:52:40.701Z,14.10
2018-11-12T16:55:13.505Z,14.10
2018-11-12T16:57:41.935Z,14.10
2018-11-12T17:00:12.080Z,14.10
2018-11-12T17:02:40.678Z,14.10
2018-11-12T17:05:11.027Z,14.10
2018-11-12T17:07:39.369Z,14.10
2018-11-12T17:10:09.393Z,14.10
2018-11-12T17:12:38.121Z,14.10
2018-11-12T17:15:06.571Z,14.10
2018-11-12T17:17:34.924Z,14.10
2018-11-12T17:20:03.267Z,14.10
2018-11-12T17:22:31.727Z,14.10
2018-11-12T17:25:00.069Z,14.10
2018-11-12T17:27:28.434Z,14.10
2018-11-12T17:29:56.811Z,14.10
2018-11-12T17:32:25.157Z,14.10
2018-11-12T17:34:53.740Z,14.10
2018-11-12T17:37:22.090Z,14.10
2018-11-12T17:39:50.431Z,14.10
2018-11-12T17:42:18.773Z,14.10
2018-11-12T17:44:47.125Z,14.10
2018-11-12T17:47:15.493Z,14.10
2018-11-12T17:49:43.903Z,14.10
2018-11-12T17:52:12.208Z,14.10
2018-11-12T17:54:40.568Z,14.10
2018-11-12T17:57:08.959Z,14.10
2018-11-12T17:59:37.333Z,14.10
2018-11-12T18:02:05.733Z,14.10
2018-11-12T18:04:34.093Z,14.10
2018-11-12T18:07:02.838Z,14.10
2018-11-12T18:09:31.847Z,14.00
2018-11-12T18:12:00.262Z,14.10
2018-11-12T18:14:28.629Z,14.00
2018-11-12T18:16:57.037Z,14.00
2018-11-12T18:19:25.398Z,14.10
2018-11-12T18:21:53.964Z,14.10
2018-11-12T18:24:22.328Z,14.10
2018-11-12T18:26:50.737Z,14.00
2018-11-12T18:29:19.270Z,14.10
2018-11-12T18:31:47.929Z,14.00
2018-11-12T18:34:16.191Z,14.00
2018-11-12T18:36:44.583Z,14.00
2018-11-12T18:39:12.976Z,14.00
2018-11-12T18:41:41.370Z,14.00
2018-11-12T18:44:09.800Z,14.00
2018-11-12T18:46:38.416Z,14.00
2018-11-12T18:49:06.808Z,14.00
2018-11-12T18:51:35.199Z,14.00
2018-11-12T18:54:03.710Z,13.90
2018-11-12T18:56:32.144Z,13.90
2018-11-12T18:59:01.639Z,13.90
2018-11-12T19:01:30.120Z,14.00
2018-11-12T19:03:58.527Z,13.90
2018-11-12T19:06:27.069Z,13.90
2018-11-12T19:08:55.482Z,13.90
2018-11-12T19:11:23.904Z,13.90
2018-11-12T19:13:53.012Z,13.90
2018-11-12T19:16:21.416Z,13.90
2018-11-12T19:18:49.855Z,13.90
2018-11-12T19:21:18.397Z,13.80
2018-11-12T19:23:46.698Z,13.80
2018-11-12T19:26:15.576Z,13.80
2018-11-12T19:28:44.011Z,13.80
2018-11-12T19:31:12.432Z,13.80
2018-11-12T19:33:42.002Z,13.70
2018-11-12T19:36:10.423Z,13.70
2018-11-12T19:38:38.860Z,13.70
2018-11-12T19:41:07.426Z,13.70
2018-11-12T19:43:36.676Z,13.60
2018-11-12T19:46:05.746Z,13.60
2018-11-12T19:48:34.467Z,13.60
2018-11-12T19:51:03.006Z,13.50
2018-11-12T19:53:32.341Z,13.50
2018-11-12T19:56:01.175Z,13.50
2018-11-12T19:58:30.485Z,13.40
2018-11-12T20:00:58.939Z,13.50
2018-11-12T20:03:27.906Z,13.50
2018-11-12T20:05:56.726Z,13.50
2018-11-12T20:08:27.075Z,13.50
2018-11-12T20:10:56.125Z,13.40
2018-11-12T20:13:24.592Z,13.40
2018-11-12T20:15:53.040Z,13.40
2018-11-12T20:18:21.485Z,13.40
2018-11-12T20:20:49.938Z,13.40
2018-11-12T20:23:18.380Z,13.40
2018-11-12T20:25:48.010Z,13.40
2018-11-12T20:28:16.468Z,13.40
2018-11-12T20:30:45.251Z,13.40
2018-11-12T20:33:14.035Z,13.40
2018-11-12T20:35:42.510Z,13.40
2018-11-12T20:38:11.519Z,13.40
2018-11-12T20:40:40.966Z,13.40
2018-11-12T20:43:09.410Z,13.40
2018-11-12T20:45:37.843Z,13.30
2018-11-12T20:48:07.373Z,13.30
2018-11-12T20:50:35.863Z,13.30
2018-11-12T20:53:05.292Z,13.30
2018-11-12T20:55:33.830Z,13.30
2018-11-12T20:58:02.242Z,13.20
2018-11-12T21:00:30.700Z,13.20
2018-11-12T21:02:59.176Z,13.20
2018-11-12T21:05:29.028Z,13.20
2018-11-12T21:07:57.916Z,13.20
2018-11-12T21:10:26.350Z,13.30
2018-11-12T21:12:54.774Z,13.30
2018-11-12T21:15:24.078Z,13.30
2018-11-12T21:17:52.833Z,13.30
2018-11-12T21:20:22.438Z,13.30
2018-11-12T21:22:50.897Z,13.30
2018-11-12T21:25:20.609Z,13.20
2018-11-12T21:27:48.970Z,13.20
2018-11-12T21:30:18.814Z,13.20
2018-11-12T21:32:47.256Z,13.20
2018-11-12T21:35:15.646Z,13.10
2018-11-12T21:37:44.111Z,13.10
2018-11-12T21:40:14.806Z,13.10
2018-11-12T21:42:43.228Z,13.10
2018-11-12T21:45:14.317Z,13.10
2018-11-12T21:47:44.008Z,13.10
2018-11-12T21:50:14.028Z,13.00
2018-11-12T21:52:42.425Z,13.00
2018-11-12T21:55:11.621Z,13.00
2018-11-12T21:57:40.408Z,13.00
2018-11-12T22:00:15.088Z,12.90
2018-11-12T22:02:43.878Z,12.90
2018-11-12T22:05:12.256Z,12.90
2018-11-12T22:07:40.646Z,12.90
2018-11-12T22:10:10.424Z,12.90
2018-11-12T22:12:38.746Z,12.80
2018-11-12T22:15:07.755Z,12.80
2018-11-12T22:17:36.275Z,12.80
2018-11-12T22:20:05.798Z,12.80
2018-11-12T22:22:34.117Z,12.70
2018-11-12T22:25:02.443Z,12.70
2018-11-12T22:27:30.828Z,12.70
2018-11-12T22:29:59.121Z,12.70
2018-11-12T22:32:27.428Z,12.70
2018-11-12T22:34:55.733Z,12.70
2018-11-12T22:37:24.693Z,12.70
2018-11-12T22:39:52.991Z,12.60
2018-11-12T22:42:21.337Z,12.70
2018-11-12T22:44:49.632Z,12.70
2018-11-12T22:47:18.195Z,12.60
2018-11-12T22:49:46.490Z,12.60
2018-11-12T22:52:14.828Z,12.70
2018-11-12T22:54:43.129Z,12.60
2018-11-12T22:57:12.087Z,12.60
2018-11-12T22:59:40.439Z,12.60
2018-11-12T23:02:08.723Z,12.50
2018-11-12T23:04:37.219Z,12.50
2018-11-12T23:07:05.936Z,12.50
2018-11-12T23:09:34.240Z,12.50
2018-11-12T23:12:02.583Z,12.50
2018-11-12T23:14:30.961Z,12.50
2018-11-12T23:17:00.350Z,12.50
2018-11-12T23:19:28.704Z,12.50
2018-11-12T23:21:56.974Z,12.50
2018-11-12T23:24:25.264Z,12.50
2018-11-12T23:26:53.599Z,12.60
2018-11-12T23:29:21.911Z,12.60
2018-11-12T23:31:50.264Z,12.50
2018-11-12T23:34:18.549Z,12.50
2018-11-12T23:36:46.941Z,12.50
2018-11-12T23:39:15.242Z,12.50
2018-11-12T23:41:43.513Z,12.50
2018-11-12T23:44:11.836Z,12.40
2018-11-12T23:46:40.163Z,12.40
2018-11-12T23:49:08.481Z,12.30
2018-11-12T23:51:36.795Z,12.30
2018-11-12T23:54:12.955Z,12.30
2018-11-12T23:56:41.267Z,12.30
2018-11-12T23:59:09.563Z,12.30
